createdAt,value
2022-09-28T00:01:18.899Z,9.80
2022-09-28T00:03:48.514Z,9.80
2022-09-28T00:06:18.795Z,9.80
2022-09-28T00:08:46.796Z,9.70
2022-09-28T00:11:15.572Z,9.60
2022-09-28T00:13:43.989Z,9.70
2022-09-28T00:16:18.064Z,9.70
2022-09-28T00:18:46.585Z,9.70
2022-09-28T00:21:16.888Z,9.70
2022-09-28T00:24:03.728Z,9.70
2022-09-28T00:26:33.835Z,9.60
2022-09-28T00:29:02.471Z,9.80
2022-09-28T00:31:32.701Z,9.80
2022-09-28T00:34:01.929Z,9.80
2022-09-28T00:36:31.257Z,9.80
2022-09-28T00:38:59.642Z,9.80
2022-09-28T00:41:28.360Z,9.90
2022-09-28T00:44:23.983Z,9.90
2022-09-28T00:47:16.545Z,9.90
2022-09-28T00:49:47.420Z,9.90
2022-09-28T00:52:40.830Z,9.90
2022-09-28T00:55:18.850Z,9.90
2022-09-28T00:57:51.824Z,9.90
2022-09-28T01:00:19.748Z,9.90
2022-09-28T01:02:47.899Z,10.00
2022-09-28T01:05:17.152Z,9.90
2022-09-28T01:07:46.366Z,10.10
2022-09-28T01:10:15.286Z,10.00
2022-09-28T01:12:42.829Z,10.00
2022-09-28T01:15:11.044Z,10.00
2022-09-28T01:17:54.180Z,10.00
2022-09-28T01:20:30.574Z,10.10
2022-09-28T01:23:19.649Z,10.10
2022-09-28T01:26:03.277Z,10.10
2022-09-28T01:28:31.809Z,10.20
2022-09-28T01:31:03.285Z,10.10
2022-09-28T01:33:41.856Z,10.10
2022-09-28T01:36:11.827Z,10.10
2022-09-28T01:38:48.041Z,10.00
2022-09-28T01:41:17.885Z,10.00
2022-09-28T01:43:54.156Z,10.10
2022-09-28T01:46:32.863Z,10.10
2022-09-28T01:49:11.147Z,10.10
2022-09-28T01:52:08.603Z,10.00
2022-09-28T01:54:44.896Z,10.10
2022-09-28T01:57:21.900Z,10.00
2022-09-28T02:00:14.388Z,10.00
2022-09-28T02:02:55.582Z,10.00
2022-09-28T02:05:42.526Z,10.00
2022-09-28T02:08:33.881Z,10.10
2022-09-28T02:11:05.548Z,10.20
2022-09-28T02:13:34.759Z,10.20
2022-09-28T02:16:21.088Z,10.20
2022-09-28T02:18:48.702Z,10.20
2022-09-28T02:21:29.550Z,10.20
2022-09-28T02:24:03.572Z,10.20
2022-09-28T02:26:36.354Z,10.20
2022-09-28T02:29:04.556Z,10.30
2022-09-28T02:31:32.277Z,10.20
2022-09-28T02:34:00.039Z,10.30
2022-09-28T02:36:29.208Z,10.30
2022-09-28T02:38:58.311Z,10.30
2022-09-28T02:42:03.741Z,10.30
2022-09-28T02:45:08.556Z,10.30
2022-09-28T02:47:56.401Z,10.30
2022-09-28T02:50:49.979Z,10.30
2022-09-28T02:53:42.282Z,10.20
2022-09-28T02:56:47.487Z,10.30
2022-09-28T02:59:59.963Z,10.20
2022-09-28T03:02:46.315Z,10.10
2022-09-28T03:05:18.724Z,10.10
2022-09-28T03:07:55.000Z,10.10
2022-09-28T03:10:43.263Z,10.00
2022-09-28T03:13:13.536Z,10.00
2022-09-28T03:15:45.174Z,10.00
2022-09-28T03:18:16.201Z,10.00
2022-09-28T03:20:43.876Z,9.90
2022-09-28T03:23:26.905Z,9.80
2022-09-28T03:25:54.805Z,9.70
2022-09-28T03:28:22.657Z,9.60
2022-09-28T03:30:50.580Z,9.50
2022-09-28T03:33:19.697Z,9.50
2022-09-28T03:35:48.928Z,9.40
2022-09-28T03:38:18.365Z,9.40
2022-09-28T03:40:56.227Z,9.50
2022-09-28T03:43:25.605Z,9.30
2022-09-28T03:45:59.011Z,9.20
2022-09-28T03:48:32.378Z,9.20
2022-09-28T03:51:02.866Z,9.20
2022-09-28T03:53:30.735Z,9.20
2022-09-28T03:56:06.969Z,9.30
2022-09-28T03:58:34.764Z,9.30
2022-09-28T04:01:04.920Z,9.30
2022-09-28T04:03:32.867Z,9.40
2022-09-28T04:06:01.143Z,9.40
2022-09-28T04:08:29.004Z,9.40
2022-09-28T04:10:57.817Z,9.30
2022-09-28T04:13:26.249Z,9.30
2022-09-28T04:15:56.097Z,9.40
2022-09-28T04:18:25.107Z,9.30
2022-09-28T04:21:06.575Z,9.30
2022-09-28T04:23:36.133Z,9.30
2022-09-28T04:26:24.716Z,9.30
2022-09-28T04:29:11.577Z,9.30
2022-09-28T04:31:57.565Z,9.30
2022-09-28T04:34:25.393Z,9.30
2022-09-28T04:36:53.006Z,9.20
2022-09-28T04:39:20.882Z,9.20
2022-09-28T04:41:49.378Z,9.10
2022-09-28T04:44:17.161Z,9.10
2022-09-28T04:46:44.768Z,9.10
2022-09-28T04:49:12.652Z,9.10
2022-09-28T04:51:40.302Z,9.10
2022-09-28T04:54:08.129Z,9.00
2022-09-28T04:56:48.844Z,9.00
2022-09-28T04:59:16.707Z,8.90
2022-09-28T05:01:44.595Z,8.80
2022-09-28T05:04:12.214Z,8.70
2022-09-28T05:06:39.975Z,8.70
2022-09-28T05:09:09.478Z,8.70
2022-09-28T05:11:37.146Z,8.60
2022-09-28T05:14:05.792Z,8.50
2022-09-28T05:16:35.792Z,8.50
2022-09-28T05:19:03.484Z,8.50
2022-09-28T05:21:46.946Z,8.40
2022-09-28T05:24:14.807Z,8.30
2022-09-28T05:26:42.437Z,8.20
2022-09-28T05:29:10.296Z,8.20
2022-09-28T05:31:46.575Z,8.20
2022-09-28T05:34:14.350Z,8.20
2022-09-28T05:36:49.312Z,8.20
2022-09-28T05:41:07.088Z,8.20
2022-09-28T05:43:20.501Z,8.20
2022-09-28T05:45:51.640Z,8.20
2022-09-28T05:48:22.167Z,8.20
2022-09-28T05:50:53.319Z,8.20
2022-09-28T05:53:21.239Z,8.20
2022-09-28T05:55:48.825Z,8.20
2022-09-28T05:58:16.954Z,8.20
2022-09-28T06:00:44.570Z,8.20
2022-09-28T06:03:15.531Z,8.30
2022-09-28T06:06:06.567Z,8.40
2022-09-28T06:08:34.352Z,8.20
2022-09-28T06:11:03.080Z,8.40
2022-09-28T06:13:32.160Z,8.40
2022-09-28T06:16:00.014Z,8.50
2022-09-28T06:18:27.679Z,8.40
2022-09-28T06:20:55.343Z,8.50
2022-09-28T06:23:23.105Z,8.60
2022-09-28T06:26:11.699Z,8.60
2022-09-28T06:28:40.765Z,8.70
2022-09-28T06:31:08.619Z,8.80
2022-09-28T06:33:38.578Z,8.90
2022-09-28T06:36:06.462Z,9.00
2022-09-28T06:38:34.202Z,9.10
2022-09-28T06:41:01.846Z,9.20
2022-09-28T06:43:34.147Z,9.30
2022-09-28T06:46:02.669Z,9.50
2022-09-28T06:48:33.408Z,9.60
2022-09-28T06:51:01.379Z,9.70
2022-09-28T06:53:29.755Z,9.80
2022-09-28T06:55:57.419Z,9.90
2022-09-28T06:58:28.103Z,10.00
2022-09-28T07:01:00.483Z,10.10
2022-09-28T07:03:28.256Z,10.20
2022-09-28T07:05:56.748Z,10.30
2022-09-28T07:08:25.865Z,10.40
2022-09-28T07:10:56.833Z,10.50
2022-09-28T07:16:16.063Z,10.70
2022-09-28T07:18:43.677Z,10.70
2022-09-28T07:21:24.480Z,10.60
2022-09-28T07:23:56.274Z,10.60
2022-09-28T07:26:24.796Z,10.70
2022-09-28T07:28:53.811Z,10.50
2022-09-28T07:31:21.701Z,10.40
2022-09-28T07:33:53.732Z,10.60
2022-09-28T07:36:22.773Z,10.60
2022-09-28T07:38:50.586Z,10.60
2022-09-28T07:41:22.722Z,10.80
2022-09-28T07:43:52.557Z,10.90
2022-09-28T07:46:22.945Z,11.00
2022-09-28T07:48:51.648Z,11.10
2022-09-28T07:51:21.148Z,11.20
2022-09-28T07:53:48.737Z,11.10
2022-09-28T07:56:19.519Z,11.30
2022-09-28T07:58:48.017Z,11.40
2022-09-28T08:01:16.625Z,11.50
2022-09-28T08:03:45.390Z,11.50
2022-09-28T08:06:15.499Z,11.40
2022-09-28T08:08:44.806Z,11.40
2022-09-28T08:11:15.090Z,11.50
2022-09-28T08:13:44.029Z,11.50
2022-09-28T08:16:11.886Z,11.60
2022-09-28T08:18:39.700Z,11.90
2022-09-28T08:21:26.005Z,12.10
2022-09-28T08:23:53.649Z,12.30
2022-09-28T08:26:21.769Z,12.70
2022-09-28T08:28:49.393Z,13.00
2022-09-28T08:31:17.247Z,13.30
2022-09-28T08:33:44.939Z,13.40
2022-09-28T08:36:12.538Z,13.40
2022-09-28T08:38:40.166Z,13.60
2022-09-28T08:41:41.831Z,13.60
2022-09-28T08:44:15.853Z,13.10
2022-09-28T08:46:49.516Z,12.80
2022-09-28T08:49:26.521Z,12.90
2022-09-28T08:52:07.725Z,13.10
2022-09-28T08:54:46.199Z,13.10
2022-09-28T08:57:20.551Z,13.60
2022-09-28T08:59:56.858Z,13.80
2022-09-28T09:02:39.619Z,13.90
2022-09-28T09:05:14.791Z,14.20
2022-09-28T09:07:57.671Z,14.10
2022-09-28T09:10:28.616Z,13.90
2022-09-28T09:13:03.485Z,13.90
2022-09-28T09:15:40.948Z,13.60
2022-09-28T09:18:42.096Z,13.60
2022-09-28T09:21:31.509Z,13.30
2022-09-28T09:24:10.727Z,13.10
2022-09-28T09:26:40.191Z,13.10
2022-09-28T09:29:13.815Z,12.80
2022-09-28T09:32:06.689Z,12.80
2022-09-28T09:34:56.253Z,13.10
2022-09-28T09:37:31.233Z,13.40
2022-09-28T09:40:16.720Z,13.50
2022-09-28T09:43:09.140Z,13.80
2022-09-28T09:45:48.673Z,14.40
2022-09-28T09:48:34.929Z,14.70
2022-09-28T09:51:13.542Z,14.70
2022-09-28T09:54:04.983Z,15.00
2022-09-28T09:56:44.244Z,14.90
2022-09-28T09:59:19.140Z,14.70
2022-09-28T10:01:47.273Z,14.20
2022-09-28T10:04:20.056Z,13.70
2022-09-28T10:06:49.787Z,13.30
2022-09-28T10:09:27.560Z,13.30
2022-09-28T10:11:55.210Z,13.20
2022-09-28T10:14:24.589Z,13.20
2022-09-28T10:16:55.226Z,13.30
2022-09-28T10:19:33.149Z,13.50
2022-09-28T10:22:05.499Z,13.50
2022-09-28T10:24:41.273Z,13.70
2022-09-28T10:27:15.137Z,13.60
2022-09-28T10:30:02.414Z,13.70
2022-09-28T10:32:40.101Z,13.70
2022-09-28T10:35:19.776Z,13.70
2022-09-28T10:37:54.154Z,13.90
2022-09-28T10:40:45.673Z,14.20
2022-09-28T10:43:25.427Z,13.90
2022-09-28T10:46:06.197Z,14.20
2022-09-28T10:49:09.509Z,14.30
2022-09-28T10:52:03.423Z,14.50
2022-09-28T10:54:32.317Z,15.00
2022-09-28T10:57:00.294Z,15.10
2022-09-28T10:59:30.700Z,15.30
2022-09-28T11:02:02.150Z,15.30
2022-09-28T11:04:43.258Z,15.80
2022-09-28T11:07:26.407Z,16.20
2022-09-28T11:09:55.382Z,16.20
2022-09-28T11:12:28.784Z,17.00
2022-09-28T11:15:02.889Z,17.90
2022-09-28T11:17:40.373Z,20.30
2022-09-28T11:20:28.192Z,22.30
2022-09-28T11:23:14.501Z,22.80
2022-09-28T11:25:42.464Z,24.20
2022-09-28T11:28:22.249Z,25.10
2022-09-28T11:30:53.035Z,22.10
2022-09-28T11:33:32.966Z,20.20
2022-09-28T11:36:18.490Z,18.90
2022-09-28T11:38:59.766Z,17.70
2022-09-28T11:41:46.179Z,17.10
2022-09-28T11:44:38.206Z,16.60
2022-09-28T11:47:24.115Z,16.00
2022-09-28T11:50:07.177Z,15.00
2022-09-28T11:52:57.246Z,14.90
2022-09-28T11:55:30.227Z,15.00
2022-09-28T11:58:08.946Z,15.30
2022-09-28T12:00:44.784Z,15.70
2022-09-28T12:03:28.262Z,15.80
2022-09-28T12:06:00.859Z,15.70
2022-09-28T12:08:31.819Z,15.90
2022-09-28T12:11:09.724Z,15.60
2022-09-28T12:13:44.663Z,16.00
2022-09-28T12:16:45.697Z,15.80
2022-09-28T12:19:55.307Z,15.20
2022-09-28T12:22:33.301Z,15.90
2022-09-28T12:25:03.814Z,16.60
2022-09-28T12:27:43.855Z,17.30
2022-09-28T12:30:20.369Z,17.10
2022-09-28T12:33:13.115Z,17.20
2022-09-28T12:35:55.827Z,17.60
2022-09-28T12:38:38.631Z,17.00
2022-09-28T12:41:23.281Z,16.70
2022-09-28T12:44:26.336Z,16.70
2022-09-28T12:46:57.909Z,16.70
2022-09-28T12:53:02.940Z,17.60
2022-09-28T12:55:58.764Z,17.40
2022-09-28T12:59:01.044Z,17.40
2022-09-28T13:01:56.817Z,17.40
2022-09-28T13:04:58.169Z,17.80
2022-09-28T13:07:37.893Z,18.10
2022-09-28T13:10:43.678Z,17.90
2022-09-28T13:13:35.122Z,19.10
2022-09-28T13:16:57.238Z,19.20
2022-09-28T13:19:55.343Z,18.50
2022-09-28T13:22:35.163Z,17.20
2022-09-28T13:25:11.948Z,17.00
2022-09-28T13:27:45.531Z,16.70
2022-09-28T13:30:15.604Z,16.20
2022-09-28T13:32:44.583Z,16.30
2022-09-28T13:35:19.333Z,16.10
2022-09-28T13:37:47.834Z,15.70
2022-09-28T13:40:15.403Z,15.60
2022-09-28T13:42:53.228Z,15.80
2022-09-28T13:45:20.792Z,15.70
2022-09-28T13:47:51.601Z,15.80
2022-09-28T13:50:43.173Z,15.80
2022-09-28T13:53:29.418Z,15.90
2022-09-28T13:56:20.851Z,16.10
2022-09-28T13:58:54.310Z,16.00
2022-09-28T14:01:31.080Z,16.00
2022-09-28T14:04:10.647Z,16.00
2022-09-28T14:06:45.722Z,16.10
2022-09-28T14:09:16.343Z,16.20
2022-09-28T14:11:59.213Z,16.40
2022-09-28T14:14:26.927Z,16.40
2022-09-28T14:17:19.189Z,16.30
2022-09-28T14:20:15.297Z,16.40
2022-09-28T14:23:05.445Z,16.50
2022-09-28T14:26:00.473Z,16.70
2022-09-28T14:28:53.722Z,16.70
2022-09-28T14:31:27.804Z,16.80
2022-09-28T14:33:58.392Z,17.00
2022-09-28T14:36:59.073Z,17.00
2022-09-28T14:39:49.592Z,17.20
2022-09-28T14:42:23.897Z,17.20
2022-09-28T14:45:06.683Z,17.30
2022-09-28T14:47:35.238Z,17.20
2022-09-28T14:50:17.972Z,17.00
2022-09-28T14:52:51.493Z,16.80
2022-09-28T14:55:31.877Z,16.60
2022-09-28T14:57:59.602Z,16.40
2022-09-28T15:00:31.788Z,16.30
2022-09-28T15:03:03.384Z,16.10
2022-09-28T15:05:38.752Z,16.00
2022-09-28T15:08:07.942Z,15.90
2022-09-28T15:10:44.038Z,16.00
2022-09-28T15:13:27.650Z,16.10
2022-09-28T15:16:05.679Z,16.10
2022-09-28T15:18:43.929Z,15.90
2022-09-28T15:21:12.783Z,15.70
2022-09-28T15:23:44.009Z,15.70
2022-09-28T15:26:31.006Z,15.40
2022-09-28T15:28:59.363Z,15.40
2022-09-28T15:31:30.231Z,15.40
2022-09-28T15:34:16.501Z,15.40
2022-09-28T15:36:49.285Z,15.20
2022-09-28T15:39:34.060Z,15.30
2022-09-28T15:42:02.195Z,15.40
2022-09-28T15:44:36.563Z,15.50
2022-09-28T15:47:25.259Z,15.30
2022-09-28T15:49:58.673Z,15.20
2022-09-28T15:52:36.052Z,15.20
2022-09-28T15:55:17.164Z,15.30
2022-09-28T15:57:44.814Z,15.30
2022-09-28T16:00:21.390Z,15.40
2022-09-28T16:03:07.115Z,15.30
2022-09-28T16:05:59.012Z,15.30
2022-09-28T16:08:35.813Z,15.20
2022-09-28T16:11:21.552Z,15.20
2022-09-28T16:14:06.226Z,15.10
2022-09-28T16:16:46.357Z,15.00
2022-09-28T16:19:28.397Z,14.90
2022-09-28T16:21:58.518Z,14.80
2022-09-28T16:24:28.374Z,14.80
2022-09-28T16:27:09.207Z,14.70
2022-09-28T16:29:40.202Z,14.70
2022-09-28T16:32:26.008Z,14.70
2022-09-28T16:35:18.539Z,14.50
2022-09-28T16:37:48.823Z,14.40
2022-09-28T16:40:16.739Z,14.30
2022-09-28T16:42:49.107Z,14.30
2022-09-28T16:45:20.529Z,14.20
2022-09-28T16:47:52.837Z,14.20
2022-09-28T16:50:22.240Z,14.20
2022-09-28T16:53:21.201Z,13.90
2022-09-28T16:55:51.116Z,13.80
2022-09-28T16:58:18.910Z,13.70
2022-09-28T17:00:46.569Z,13.70
2022-09-28T17:03:18.230Z,13.70
2022-09-28T17:05:47.898Z,13.60
2022-09-28T17:08:17.568Z,13.60
2022-09-28T17:11:15.874Z,13.50
2022-09-28T17:13:44.035Z,13.50
2022-09-28T17:16:14.774Z,13.40
2022-09-28T17:18:42.425Z,13.40
2022-09-28T17:21:16.821Z,13.30
2022-09-28T17:23:48.822Z,13.30
2022-09-28T17:26:31.445Z,13.20
2022-09-28T17:28:59.769Z,13.10
2022-09-28T17:31:30.990Z,13.10
2022-09-28T17:33:58.850Z,13.00
2022-09-28T17:36:26.944Z,13.00
2022-09-28T17:38:54.539Z,12.90
2022-09-28T17:41:22.106Z,12.90
2022-09-28T17:43:50.107Z,12.80
2022-09-28T17:46:26.175Z,12.70
2022-09-28T17:48:55.382Z,12.50
2022-09-28T17:51:23.756Z,12.30
2022-09-28T17:53:52.557Z,12.20
2022-09-28T17:56:20.353Z,12.20
2022-09-28T17:58:47.946Z,12.20
2022-09-28T18:01:17.183Z,12.10
2022-09-28T18:03:45.299Z,12.00
2022-09-28T18:06:19.777Z,12.00
2022-09-28T18:08:47.355Z,11.90
2022-09-28T18:11:17.265Z,11.90
2022-09-28T18:13:46.817Z,11.80
2022-09-28T18:16:17.377Z,11.80
2022-09-28T18:18:48.606Z,11.70
2022-09-28T18:21:16.374Z,11.70
2022-09-28T18:23:44.190Z,11.70
2022-09-28T18:26:13.204Z,11.70
2022-09-28T18:28:42.773Z,11.80
2022-09-28T18:31:12.292Z,11.80
2022-09-28T18:33:41.023Z,11.80
2022-09-28T18:36:08.753Z,11.70
2022-09-28T18:38:36.789Z,11.60
2022-09-28T18:41:15.771Z,11.60
2022-09-28T18:43:49.543Z,11.60
2022-09-28T18:46:18.438Z,11.60
2022-09-28T18:48:49.656Z,11.80
2022-09-28T18:51:17.561Z,11.80
2022-09-28T18:53:45.223Z,11.90
2022-09-28T18:56:17.021Z,11.80
2022-09-28T18:58:45.804Z,11.80
2022-09-28T19:01:32.672Z,11.70
2022-09-28T19:04:02.014Z,11.80
2022-09-28T19:06:30.258Z,11.80
2022-09-28T19:08:58.856Z,11.80
2022-09-28T19:11:27.650Z,11.80
2022-09-28T19:13:55.807Z,11.70
2022-09-28T19:16:28.926Z,11.60
2022-09-28T19:18:58.146Z,11.50
2022-09-28T19:21:26.685Z,11.60
2022-09-28T19:23:55.485Z,11.50
2022-09-28T19:26:28.003Z,11.40
2022-09-28T19:28:56.747Z,11.30
2022-09-28T19:31:25.128Z,11.30
2022-09-28T19:33:52.751Z,11.20
2022-09-28T19:36:23.584Z,11.20
2022-09-28T19:38:52.820Z,11.10
2022-09-28T19:41:43.538Z,11.20
2022-09-28T19:44:26.954Z,11.10
2022-09-28T19:47:00.198Z,11.00
2022-09-28T19:49:33.117Z,10.90
2022-09-28T19:52:12.804Z,10.80
2022-09-28T19:54:48.311Z,10.80
2022-09-28T19:57:16.233Z,10.80
2022-09-28T19:59:44.305Z,10.70
2022-09-28T20:02:12.167Z,10.80
2022-09-28T20:04:39.891Z,10.80
2022-09-28T20:07:07.522Z,10.70
2022-09-28T20:09:35.262Z,10.60
2022-09-28T20:12:03.148Z,10.60
2022-09-28T20:14:34.269Z,10.50
2022-09-28T20:17:05.699Z,10.60
2022-09-28T20:19:33.532Z,10.40
2022-09-28T20:22:02.725Z,10.40
2022-09-28T20:24:31.315Z,10.40
2022-09-28T20:26:59.366Z,10.40
2022-09-28T20:29:26.961Z,10.40
2022-09-28T20:31:54.567Z,10.40
2022-09-28T20:34:22.193Z,10.40
2022-09-28T20:36:49.744Z,10.30
2022-09-28T20:39:17.549Z,10.30
2022-09-28T20:41:47.038Z,10.40
2022-09-28T20:44:14.712Z,10.50
2022-09-28T20:46:44.133Z,10.40
2022-09-28T20:49:12.169Z,10.30
2022-09-28T20:51:39.815Z,10.20
2022-09-28T20:54:07.671Z,10.10
2022-09-28T20:56:38.916Z,10.10
2022-09-28T20:59:11.940Z,10.00
2022-09-28T21:01:40.334Z,9.90
2022-09-28T21:04:09.846Z,9.90
2022-09-28T21:06:39.994Z,9.90
2022-09-28T21:09:09.563Z,9.90
2022-09-28T21:11:37.561Z,9.90
2022-09-28T21:14:06.797Z,9.90
2022-09-28T21:16:35.247Z,9.90
2022-09-28T21:19:03.441Z,9.90
2022-09-28T21:21:31.298Z,9.90
2022-09-28T21:23:59.110Z,9.90
2022-09-28T21:26:28.709Z,9.70
2022-09-28T21:29:01.668Z,9.80
2022-09-28T21:31:32.589Z,9.80
2022-09-28T21:34:00.710Z,9.80
2022-09-28T21:36:28.303Z,9.80
2022-09-28T21:38:56.178Z,9.60
2022-09-28T21:41:24.831Z,9.50
2022-09-28T21:43:52.684Z,9.40
2022-09-28T21:46:20.426Z,9.40
2022-09-28T21:48:53.377Z,9.30
2022-09-28T21:51:21.472Z,9.10
2022-09-28T21:53:49.378Z,9.20
2022-09-28T21:56:17.566Z,9.20
2022-09-28T21:58:45.269Z,9.10
2022-09-28T22:01:19.408Z,9.10
2022-09-28T22:03:53.713Z,9.20
2022-09-28T22:06:23.871Z,9.10
2022-09-28T22:08:51.529Z,9.00
2022-09-28T22:11:24.864Z,9.00
2022-09-28T22:13:54.940Z,9.00
2022-09-28T22:16:24.314Z,9.10
2022-09-28T22:18:51.981Z,9.00
2022-09-28T22:21:22.735Z,9.00
2022-09-28T22:23:50.998Z,9.00
2022-09-28T22:26:24.702Z,9.00
2022-09-28T22:28:57.397Z,9.00
2022-09-28T22:31:30.538Z,9.00
2022-09-28T22:33:58.767Z,9.00
2022-09-28T22:36:26.627Z,8.90
2022-09-28T22:38:55.442Z,8.90
2022-09-28T22:41:23.389Z,8.80
2022-09-28T22:43:52.816Z,8.80
2022-09-28T22:46:25.786Z,8.80
2022-09-28T22:48:58.371Z,8.80
2022-09-28T22:51:28.411Z,8.70
2022-09-28T22:53:56.658Z,8.70
2022-09-28T22:56:24.887Z,8.60
2022-09-28T22:58:52.714Z,8.60
2022-09-28T23:01:29.417Z,8.60
2022-09-28T23:03:57.990Z,8.60
2022-09-28T23:06:29.019Z,8.40
2022-09-28T23:08:57.238Z,8.40
2022-09-28T23:11:25.102Z,8.30
2022-09-28T23:13:54.632Z,8.20
2022-09-28T23:16:24.783Z,8.20
2022-09-28T23:18:54.346Z,8.10
2022-09-28T23:21:24.337Z,8.00
2022-09-28T23:23:57.422Z,8.00
2022-09-28T23:26:29.053Z,8.00
2022-09-28T23:28:58.034Z,8.00
2022-09-28T23:31:30.923Z,7.90
2022-09-28T23:34:00.466Z,7.90
2022-09-28T23:36:28.324Z,7.90
2022-09-28T23:38:55.969Z,8.00
2022-09-28T23:41:23.571Z,7.90
2022-09-28T23:43:51.377Z,7.90
2022-09-28T23:46:21.013Z,7.90
2022-09-28T23:48:49.902Z,7.80
2022-09-28T23:51:17.528Z,7.70
2022-09-28T23:53:45.619Z,7.70
2022-09-28T23:56:14.473Z,7.80
2022-09-28T23:58:42.700Z,7.70
